createdAt,value
2019-04-29T00:00:44.754Z,10.03
2019-04-29T00:03:14.123Z,10.04
2019-04-29T00:05:43.497Z,10.03
2019-04-29T00:08:12.848Z,10.04
2019-04-29T00:10:42.199Z,10.03
2019-04-29T00:13:11.553Z,10.04
2019-04-29T00:15:58.275Z,10.04
2019-04-29T00:18:38.418Z,10.01
2019-04-29T00:21:07.796Z,10.01
2019-04-29T00:23:37.148Z,9.98
2019-04-29T00:26:06.611Z,9.99
2019-04-29T00:28:35.976Z,9.98
2019-04-29T00:31:05.306Z,9.97
2019-04-29T00:33:34.699Z,9.97
2019-04-29T00:36:04.096Z,9.97
2019-04-29T00:38:48.072Z,9.97
2019-04-29T00:41:28.635Z,9.97
2019-04-29T00:44:00.355Z,9.96
2019-04-29T00:46:29.706Z,9.95
2019-04-29T00:48:59.088Z,9.96
2019-04-29T00:51:28.441Z,9.95
2019-04-29T00:54:03.095Z,9.96
2019-04-29T00:56:32.436Z,9.96
2019-04-29T00:59:01.822Z,9.97
2019-04-29T01:01:31.303Z,9.98
2019-04-29T01:04:00.647Z,9.98
2019-04-29T01:06:30.029Z,9.97
2019-04-29T01:08:59.403Z,9.96
2019-04-29T01:11:28.755Z,9.96
2019-04-29T01:13:58.082Z,9.96
2019-04-29T01:16:27.449Z,9.95
2019-04-29T01:18:56.827Z,9.96
2019-04-29T01:21:27.235Z,9.97
2019-04-29T01:23:56.601Z,9.96
2019-04-29T01:26:59.911Z,9.97
2019-04-29T01:29:29.836Z,9.96
2019-04-29T01:31:59.258Z,9.95
2019-04-29T01:34:33.430Z,9.95
2019-04-29T01:37:02.822Z,9.96
2019-04-29T01:39:47.417Z,9.95
2019-04-29T01:42:29.107Z,9.95
2019-04-29T01:44:58.461Z,9.96
2019-04-29T01:47:27.802Z,9.95
2019-04-29T01:49:57.163Z,9.94
2019-04-29T01:52:26.515Z,9.95
2019-04-29T01:54:55.897Z,9.95
2019-04-29T01:57:25.237Z,9.95
2019-04-29T01:59:54.574Z,9.95
2019-04-29T02:02:23.911Z,9.95
2019-04-29T02:04:53.264Z,9.95
2019-04-29T02:07:22.639Z,9.95
2019-04-29T02:10:06.910Z,9.94
2019-04-29T02:12:36.295Z,9.95
2019-04-29T02:15:06.252Z,9.94
2019-04-29T02:17:35.581Z,9.92
2019-04-29T02:20:05.476Z,9.93
2019-04-29T02:22:43.097Z,9.93
2019-04-29T02:25:17.321Z,9.94
2019-04-29T02:27:46.663Z,9.93
2019-04-29T02:30:35.486Z,9.92
2019-04-29T02:33:04.839Z,9.93
2019-04-29T02:35:34.182Z,9.93
2019-04-29T02:38:05.004Z,9.92
2019-04-29T02:40:40.920Z,9.92
2019-04-29T02:43:15.530Z,9.91
2019-04-29T02:45:46.124Z,9.90
2019-04-29T02:48:15.478Z,9.90
2019-04-29T02:50:44.790Z,9.91
2019-04-29T02:53:14.147Z,9.90
2019-04-29T02:55:47.975Z,9.91
2019-04-29T02:58:34.809Z,9.91
2019-04-29T03:01:23.287Z,9.90
2019-04-29T03:04:02.766Z,9.92
2019-04-29T03:06:32.112Z,9.91
2019-04-29T03:09:01.491Z,9.91
2019-04-29T03:11:30.963Z,9.91
2019-04-29T03:14:01.318Z,9.91
2019-04-29T03:16:30.638Z,9.92
2019-04-29T03:19:04.445Z,9.92
2019-04-29T03:21:42.140Z,9.91
2019-04-29T03:24:11.489Z,9.91
2019-04-29T03:26:40.842Z,9.90
2019-04-29T03:29:22.231Z,9.89
2019-04-29T03:31:56.724Z,9.88
2019-04-29T03:34:26.155Z,9.88
2019-04-29T03:36:55.536Z,9.88
2019-04-29T03:39:24.921Z,9.86
2019-04-29T03:41:54.292Z,9.86
2019-04-29T03:44:25.914Z,9.86
2019-04-29T03:46:55.271Z,9.85
2019-04-29T03:49:24.610Z,9.85
2019-04-29T03:51:53.962Z,9.83
2019-04-29T03:54:23.293Z,9.82
2019-04-29T03:56:53.837Z,9.81
2019-04-29T03:59:23.195Z,9.80
2019-04-29T04:02:14.206Z,9.79
2019-04-29T04:05:14.353Z,9.78
2019-04-29T04:07:50.893Z,9.77
2019-04-29T04:10:20.276Z,9.75
2019-04-29T04:12:49.656Z,9.74
2019-04-29T04:15:18.968Z,9.72
2019-04-29T04:17:57.741Z,9.72
2019-04-29T04:20:27.338Z,9.72
2019-04-29T04:22:56.709Z,9.71
2019-04-29T04:25:27.232Z,9.70
2019-04-29T04:27:56.593Z,9.69
2019-04-29T04:30:25.926Z,9.67
2019-04-29T04:32:55.294Z,9.66
2019-04-29T04:35:24.645Z,9.64
2019-04-29T04:37:54.014Z,9.64
2019-04-29T04:40:29.680Z,9.62
2019-04-29T04:43:00.830Z,9.63
2019-04-29T04:45:30.171Z,9.62
2019-04-29T04:47:59.548Z,9.61
2019-04-29T04:50:28.887Z,9.59
2019-04-29T04:52:58.209Z,9.56
2019-04-29T04:55:30.164Z,9.55
2019-04-29T04:58:01.822Z,9.53
2019-04-29T05:00:33.035Z,9.52
2019-04-29T05:03:02.363Z,9.53
2019-04-29T05:05:32.494Z,9.53
2019-04-29T05:08:01.845Z,9.52
2019-04-29T05:10:31.219Z,9.50
2019-04-29T05:13:00.572Z,9.48
2019-04-29T05:15:33.048Z,9.47
2019-04-29T05:18:02.411Z,9.46
2019-04-29T05:20:31.748Z,9.46
2019-04-29T05:23:01.168Z,9.44
2019-04-29T05:25:31.429Z,9.44
2019-04-29T05:28:01.275Z,9.44
2019-04-29T05:30:30.622Z,9.42
2019-04-29T05:32:59.947Z,9.40
2019-04-29T05:35:35.444Z,9.40
2019-04-29T05:38:19.814Z,9.39
2019-04-29T05:40:51.028Z,9.37
2019-04-29T05:43:27.114Z,9.37
2019-04-29T05:46:10.615Z,9.36
2019-04-29T05:48:39.980Z,9.35
2019-04-29T05:51:28.587Z,9.35
2019-04-29T05:53:59.205Z,9.35
2019-04-29T05:56:28.531Z,9.34
2019-04-29T05:58:57.891Z,9.35
2019-04-29T06:01:28.730Z,9.36
2019-04-29T06:03:58.052Z,9.36
2019-04-29T06:06:27.491Z,9.37
2019-04-29T06:08:56.844Z,9.37
2019-04-29T06:11:26.220Z,9.37
2019-04-29T06:13:55.549Z,9.37
2019-04-29T06:16:24.883Z,9.37
2019-04-29T06:18:59.810Z,9.36
2019-04-29T06:21:25.270Z,9.38
2019-04-29T06:23:54.859Z,9.39
2019-04-29T06:26:27.918Z,9.40
2019-04-29T06:28:58.280Z,9.39
2019-04-29T06:31:27.630Z,9.41
2019-04-29T06:34:00.732Z,9.41
2019-04-29T06:36:28.129Z,9.43
2019-04-29T06:38:57.457Z,9.44
2019-04-29T06:41:26.816Z,9.45
2019-04-29T06:43:56.338Z,9.45
2019-04-29T06:46:27.298Z,9.48
2019-04-29T06:49:09.543Z,9.50
2019-04-29T06:51:27.687Z,9.51
2019-04-29T06:53:57.021Z,9.53
2019-04-29T06:56:26.381Z,9.55
2019-04-29T06:58:55.736Z,9.56
2019-04-29T07:01:25.084Z,9.59
2019-04-29T07:03:55.782Z,9.63
2019-04-29T07:06:25.534Z,9.65
2019-04-29T07:08:54.906Z,9.66
2019-04-29T07:11:24.295Z,9.68
2019-04-29T07:13:57.692Z,9.71
2019-04-29T07:16:27.221Z,9.73
2019-04-29T07:18:55.887Z,9.76
2019-04-29T07:21:25.451Z,9.79
2019-04-29T07:23:54.877Z,9.83
2019-04-29T07:26:24.316Z,9.85
2019-04-29T07:28:56.864Z,9.88
2019-04-29T07:31:28.136Z,9.91
2019-04-29T07:33:57.932Z,9.94
2019-04-29T07:36:27.043Z,9.97
2019-04-29T07:38:56.884Z,9.99
2019-04-29T07:41:26.296Z,10.01
2019-04-29T07:43:55.657Z,10.04
2019-04-29T07:46:30.352Z,10.04
2019-04-29T07:49:01.592Z,10.08
2019-04-29T07:51:34.887Z,10.09
2019-04-29T07:54:01.828Z,10.13
2019-04-29T07:56:31.176Z,10.17
2019-04-29T07:59:03.006Z,10.20
2019-04-29T08:01:31.587Z,10.23
2019-04-29T08:04:01.090Z,10.26
2019-04-29T08:06:31.637Z,10.31
2019-04-29T08:09:07.136Z,10.34
2019-04-29T08:11:32.978Z,10.38
2019-04-29T08:14:03.366Z,10.40
2019-04-29T08:16:32.864Z,10.44
2019-04-29T08:19:04.706Z,10.46
2019-04-29T08:21:33.254Z,10.51
2019-04-29T08:24:02.610Z,10.56
2019-04-29T08:26:33.692Z,10.59
2019-04-29T08:29:03.040Z,10.63
2019-04-29T08:31:32.394Z,10.66
2019-04-29T08:34:27.538Z,10.71
2019-04-29T08:36:56.879Z,10.74
2019-04-29T08:39:29.307Z,10.80
2019-04-29T08:41:59.005Z,10.84
2019-04-29T08:44:54.741Z,10.87
2019-04-29T08:47:30.533Z,10.90
2019-04-29T08:49:56.882Z,10.94
2019-04-29T08:52:26.232Z,10.97
2019-04-29T08:54:57.273Z,11.01
2019-04-29T08:57:26.721Z,11.03
2019-04-29T08:59:56.056Z,11.04
2019-04-29T09:02:34.573Z,11.07
2019-04-29T09:04:56.482Z,11.10
2019-04-29T09:07:25.841Z,11.13
2019-04-29T09:09:56.053Z,11.16
2019-04-29T09:12:29.440Z,11.20
2019-04-29T09:14:57.423Z,11.23
2019-04-29T09:17:26.762Z,11.27
2019-04-29T09:19:56.130Z,11.30
2019-04-29T09:22:27.151Z,11.38
2019-04-29T09:25:28.592Z,11.44
2019-04-29T09:27:58.774Z,11.49
2019-04-29T09:30:28.098Z,11.52
2019-04-29T09:32:57.466Z,11.52
2019-04-29T09:35:28.770Z,11.55
2019-04-29T09:37:58.598Z,11.63
2019-04-29T09:40:31.141Z,11.63
2019-04-29T09:43:21.393Z,11.67
2019-04-29T09:46:18.581Z,11.70
2019-04-29T09:48:47.475Z,11.73
2019-04-29T09:51:18.228Z,11.77
2019-04-29T09:53:47.917Z,11.77
2019-04-29T09:56:17.245Z,11.79
2019-04-29T09:58:46.607Z,11.80
2019-04-29T10:01:23.873Z,11.83
2019-04-29T10:04:21.466Z,11.88
2019-04-29T10:06:53.052Z,11.88
2019-04-29T10:09:22.989Z,11.89
2019-04-29T10:11:52.366Z,11.95
2019-04-29T10:14:21.801Z,11.99
2019-04-29T10:17:16.697Z,11.99
2019-04-29T10:20:04.398Z,11.97
2019-04-29T10:22:34.549Z,12.04
2019-04-29T10:25:03.915Z,12.11
2019-04-29T10:27:33.262Z,12.11
2019-04-29T10:30:02.743Z,12.14
2019-04-29T10:32:32.119Z,12.16
2019-04-29T10:35:03.524Z,12.22
2019-04-29T10:37:32.704Z,12.22
2019-04-29T10:40:19.781Z,12.26
2019-04-29T10:43:02.300Z,12.36
2019-04-29T10:45:49.225Z,12.36
2019-04-29T10:48:25.513Z,12.40
2019-04-29T10:50:57.066Z,12.46
2019-04-29T10:53:28.869Z,12.51
2019-04-29T10:56:00.903Z,12.55
2019-04-29T10:58:35.459Z,12.55
2019-04-29T11:02:09.393Z,12.67
2019-04-29T11:04:36.143Z,12.67
2019-04-29T11:07:25.943Z,12.71
2019-04-29T11:09:57.506Z,12.83
2019-04-29T11:12:26.865Z,12.83
2019-04-29T11:14:56.536Z,12.93
2019-04-29T11:17:27.759Z,13.05
2019-04-29T11:19:57.590Z,13.05
2019-04-29T11:22:34.007Z,13.17
2019-04-29T11:25:21.064Z,13.22
2019-04-29T11:27:55.974Z,13.22
2019-04-29T11:30:26.053Z,13.25
2019-04-29T11:33:13.220Z,13.29
2019-04-29T11:35:59.150Z,13.29
2019-04-29T11:38:33.367Z,13.24
2019-04-29T11:41:01.039Z,13.24
2019-04-29T11:43:31.197Z,13.29
2019-04-29T11:46:00.714Z,13.34
2019-04-29T11:48:30.074Z,13.34
2019-04-29T11:51:18.340Z,13.40
2019-04-29T11:53:47.958Z,13.40
2019-04-29T11:56:17.292Z,13.46
2019-04-29T11:59:04.524Z,13.49
2019-04-29T12:01:53.487Z,13.53
2019-04-29T12:07:34.042Z,13.64
2019-04-29T12:10:06.633Z,13.64
2019-04-29T12:12:34.944Z,13.70
2019-04-29T12:15:20.837Z,13.73
2019-04-29T12:18:18.501Z,13.81
2019-04-29T12:21:21.973Z,13.89
2019-04-29T12:23:52.106Z,13.97
2019-04-29T12:26:22.659Z,14.02
2019-04-29T12:28:52.095Z,14.04
2019-04-29T12:31:36.962Z,14.04
2019-04-29T12:34:28.326Z,14.06
2019-04-29T12:36:57.676Z,14.07
2019-04-29T12:39:55.016Z,14.08
2019-04-29T12:42:42.156Z,14.08
2019-04-29T12:45:28.160Z,14.09
2019-04-29T12:47:57.470Z,14.10
2019-04-29T12:50:27.316Z,14.08
2019-04-29T12:52:56.692Z,14.08
2019-04-29T12:55:45.016Z,14.08
2019-04-29T12:58:07.838Z,14.07
2019-04-29T13:00:47.385Z,14.05
2019-04-29T13:03:24.680Z,14.05
2019-04-29T13:06:05.533Z,14.07
2019-04-29T13:08:39.527Z,14.09
2019-04-29T13:11:09.108Z,14.08
2019-04-29T13:13:38.483Z,14.09
2019-04-29T13:16:29.966Z,14.11
2019-04-29T13:19:25.224Z,14.10
2019-04-29T13:21:52.263Z,14.10
2019-04-29T13:24:24.907Z,14.11
2019-04-29T13:26:52.684Z,14.12
2019-04-29T13:29:27.135Z,14.14
2019-04-29T13:31:53.124Z,14.15
2019-04-29T13:34:30.993Z,14.16
2019-04-29T13:37:07.377Z,14.18
2019-04-29T13:39:39.971Z,14.20
2019-04-29T13:42:02.975Z,14.20
2019-04-29T13:44:41.799Z,14.20
2019-04-29T13:47:30.853Z,14.22
2019-04-29T13:50:38.365Z,14.24
2019-04-29T13:52:52.740Z,14.25
2019-04-29T13:55:46.567Z,14.25
2019-04-29T13:57:54.969Z,14.25
2019-04-29T14:00:36.560Z,14.27
2019-04-29T14:03:11.677Z,14.26
2019-04-29T14:05:41.802Z,14.26
2019-04-29T14:08:11.213Z,14.28
2019-04-29T14:10:40.576Z,14.27
2019-04-29T14:13:16.096Z,14.27
2019-04-29T14:15:40.986Z,14.28
2019-04-29T14:18:11.613Z,14.30
2019-04-29T14:20:41.477Z,14.29
2019-04-29T14:23:10.810Z,14.33
2019-04-29T14:25:40.137Z,14.37
2019-04-29T14:28:09.539Z,14.40
2019-04-29T14:30:39.447Z,14.44
2019-04-29T14:33:10.101Z,14.46
2019-04-29T14:35:48.365Z,14.45
2019-04-29T14:38:18.575Z,14.46
2019-04-29T14:40:47.924Z,14.46
2019-04-29T14:43:30.762Z,14.46
2019-04-29T14:46:30.115Z,14.45
2019-04-29T14:49:26.109Z,14.45
2019-04-29T14:51:55.475Z,14.44
2019-04-29T14:54:24.822Z,14.43
2019-04-29T14:56:54.183Z,14.44
2019-04-29T14:59:23.861Z,14.44
2019-04-29T15:02:03.982Z,14.45
2019-04-29T15:04:41.947Z,14.45
2019-04-29T15:07:11.339Z,14.44
2019-04-29T15:09:57.780Z,14.44
2019-04-29T15:13:19.602Z,14.44
2019-04-29T15:16:04.449Z,14.43
2019-04-29T15:18:49.139Z,14.44
2019-04-29T15:21:32.752Z,14.44
2019-04-29T15:23:58.536Z,14.45
2019-04-29T15:26:27.910Z,14.44
2019-04-29T15:28:57.322Z,14.47
2019-04-29T15:31:26.676Z,14.52
2019-04-29T15:33:56.022Z,14.57
2019-04-29T15:36:25.384Z,14.64
2019-04-29T15:39:08.533Z,14.69
2019-04-29T15:41:31.036Z,14.72
2019-04-29T15:44:07.089Z,14.76
2019-04-29T15:46:31.321Z,14.82
2019-04-29T15:48:59.021Z,14.84
2019-04-29T15:51:28.390Z,14.88
2019-04-29T15:53:57.754Z,14.92
2019-04-29T15:56:29.119Z,14.95
2019-04-29T15:58:59.452Z,14.98
2019-04-29T16:01:30.479Z,15.00
2019-04-29T16:04:02.066Z,15.01
2019-04-29T16:06:53.159Z,15.04
2019-04-29T16:09:51.168Z,15.07
2019-04-29T16:12:15.566Z,15.08
2019-04-29T16:14:49.046Z,15.09
2019-04-29T16:17:20.329Z,15.09
2019-04-29T16:19:47.238Z,15.06
2019-04-29T16:22:19.752Z,15.06
2019-04-29T16:24:47.667Z,15.07
2019-04-29T16:27:17.048Z,15.07
2019-04-29T16:29:51.445Z,15.07
2019-04-29T16:32:39.347Z,15.06
2019-04-29T16:35:09.118Z,15.04
2019-04-29T16:37:38.876Z,15.00
2019-04-29T16:40:09.545Z,14.97
2019-04-29T16:43:10.011Z,14.95
2019-04-29T16:46:01.170Z,14.85
2019-04-29T16:48:30.944Z,14.85
2019-04-29T16:51:00.326Z,14.75
2019-04-29T16:53:29.664Z,14.75
2019-04-29T16:55:59.016Z,14.71
2019-04-29T16:58:28.349Z,14.68
2019-04-29T17:00:57.713Z,14.64
2019-04-29T17:03:27.083Z,14.61
2019-04-29T17:05:56.384Z,14.57
2019-04-29T17:08:31.781Z,14.52
2019-04-29T17:11:17.582Z,14.51
2019-04-29T17:13:50.801Z,14.50
2019-04-29T17:16:21.827Z,14.52
2019-04-29T17:18:51.206Z,14.54
2019-04-29T17:21:20.568Z,14.57
2019-04-29T17:23:49.948Z,14.57
2019-04-29T17:26:20.955Z,14.56
2019-04-29T17:29:11.992Z,14.52
2019-04-29T17:31:57.091Z,14.49
2019-04-29T17:34:56.073Z,14.46
2019-04-29T17:36:58.913Z,14.43
2019-04-29T17:39:28.946Z,14.40
2019-04-29T17:42:04.120Z,14.37
2019-04-29T17:44:42.402Z,14.34
2019-04-29T17:47:49.120Z,14.32
2019-04-29T17:50:39.276Z,14.28
2019-04-29T17:53:27.738Z,14.24
2019-04-29T17:56:12.858Z,14.20
2019-04-29T17:58:51.743Z,14.17
2019-04-29T18:01:46.895Z,14.14
2019-04-29T18:04:58.762Z,14.11
2019-04-29T18:07:51.697Z,14.11
2019-04-29T18:10:29.454Z,14.10
2019-04-29T18:12:57.264Z,14.11
2019-04-29T18:15:40.374Z,14.11
2019-04-29T18:18:05.364Z,14.16
2019-04-29T18:20:55.216Z,14.40
2019-04-29T18:23:47.110Z,14.67
2019-04-29T18:26:22.080Z,14.89
2019-04-29T18:28:51.407Z,15.06
2019-04-29T18:31:20.805Z,15.17
2019-04-29T18:33:50.168Z,15.25
2019-04-29T18:36:24.169Z,15.34
2019-04-29T18:38:50.670Z,15.37
2019-04-29T18:41:24.668Z,15.40
2019-04-29T18:43:51.072Z,15.41
2019-04-29T18:46:20.457Z,15.39
2019-04-29T18:48:49.834Z,15.36
2019-04-29T18:51:20.837Z,15.33
2019-04-29T18:53:50.350Z,15.26
2019-04-29T18:56:19.718Z,15.26
2019-04-29T18:58:50.359Z,15.21
2019-04-29T19:01:19.973Z,15.15
2019-04-29T19:03:58.399Z,15.09
2019-04-29T19:06:27.794Z,14.91
2019-04-29T19:09:01.729Z,14.91
2019-04-29T19:11:32.123Z,14.83
2019-04-29T19:13:59.624Z,14.75
2019-04-29T19:16:28.956Z,14.66
2019-04-29T19:19:01.696Z,14.58
2019-04-29T19:21:31.456Z,14.49
2019-04-29T19:24:00.806Z,14.40
2019-04-29T19:26:30.102Z,14.30
2019-04-29T19:29:01.387Z,14.22
2019-04-29T19:31:30.535Z,14.12
2019-04-29T19:33:59.859Z,14.04
2019-04-29T19:36:29.239Z,13.97
2019-04-29T19:38:58.550Z,13.87
2019-04-29T19:41:27.908Z,13.79
2019-04-29T19:43:57.255Z,13.69
2019-04-29T19:46:36.965Z,13.61
2019-04-29T19:49:04.546Z,13.53
2019-04-29T19:51:28.814Z,13.45
2019-04-29T19:53:58.132Z,13.35
2019-04-29T19:56:28.650Z,13.30
2019-04-29T19:58:58.741Z,13.23
2019-04-29T20:01:32.405Z,13.13
2019-04-29T20:04:22.689Z,13.09
2019-04-29T20:06:58.071Z,12.95
2019-04-29T20:09:27.083Z,12.95
2019-04-29T20:11:55.830Z,12.81
2019-04-29T20:14:29.608Z,12.76
2019-04-29T20:17:17.667Z,12.70
2019-04-29T20:20:00.096Z,12.59
2019-04-29T20:22:27.214Z,12.59
2019-04-29T20:24:56.753Z,12.56
2019-04-29T20:27:30.780Z,12.48
2019-04-29T20:29:57.419Z,12.48
2019-04-29T20:32:31.719Z,12.39
2019-04-29T20:35:06.911Z,12.36
2019-04-29T20:37:31.402Z,12.29
2019-04-29T20:40:01.116Z,12.28
2019-04-29T20:42:30.599Z,12.21
2019-04-29T20:45:00.020Z,12.22
2019-04-29T20:47:37.510Z,12.22
2019-04-29T20:50:00.633Z,12.16
2019-04-29T20:52:42.285Z,12.13
2019-04-29T20:55:11.864Z,12.09
2019-04-29T20:57:41.403Z,12.08
2019-04-29T21:00:11.676Z,12.06
2019-04-29T21:02:41.241Z,12.06
2019-04-29T21:05:19.888Z,12.04
2019-04-29T21:07:42.238Z,11.97
2019-04-29T21:10:11.776Z,11.97
2019-04-29T21:13:02.876Z,11.96
2019-04-29T21:15:36.751Z,11.94
2019-04-29T21:18:06.213Z,11.94
2019-04-29T21:20:35.600Z,11.89
2019-04-29T21:23:04.950Z,11.90
2019-04-29T21:25:35.393Z,11.82
2019-04-29T21:28:05.507Z,11.85
2019-04-29T21:30:37.905Z,11.78
2019-04-29T21:33:08.229Z,11.78
2019-04-29T21:35:57.867Z,11.79
2019-04-29T21:39:01.400Z,11.77
2019-04-29T21:41:43.588Z,11.76
2019-04-29T21:44:12.953Z,11.68
2019-04-29T21:46:42.293Z,11.68
2019-04-29T21:49:12.675Z,11.67
2019-04-29T21:51:46.572Z,11.64
2019-04-29T21:54:14.316Z,11.64
2019-04-29T21:56:47.832Z,11.60
2019-04-29T21:59:15.794Z,11.58
2019-04-29T22:01:45.653Z,11.58
2019-04-29T22:04:15.050Z,11.54
2019-04-29T22:06:47.217Z,11.53
2019-04-29T22:09:18.185Z,11.51
2019-04-29T22:11:47.725Z,11.48
2019-04-29T22:14:17.137Z,11.47
2019-04-29T22:16:47.623Z,11.43
2019-04-29T22:19:17.703Z,11.43
2019-04-29T22:21:47.026Z,11.42
2019-04-29T22:24:16.481Z,11.40
2019-04-29T22:26:45.821Z,11.36
2019-04-29T22:29:15.190Z,11.34
2019-04-29T22:31:45.862Z,11.29
2019-04-29T22:34:19.056Z,11.26
2019-04-29T22:36:48.263Z,11.24
2019-04-29T22:39:17.407Z,11.23
2019-04-29T22:42:04.546Z,11.19
2019-04-29T22:44:35.900Z,11.17
2019-04-29T22:47:05.721Z,11.09
2019-04-29T22:49:35.438Z,11.09
2019-04-29T22:52:04.867Z,11.07
2019-04-29T22:54:35.337Z,11.03
2019-04-29T22:57:05.768Z,11.00
2019-04-29T22:59:35.440Z,10.96
2019-04-29T23:02:05.849Z,10.94
2019-04-29T23:04:35.249Z,10.90
2019-04-29T23:07:04.673Z,10.87
2019-04-29T23:09:36.551Z,10.85
2019-04-29T23:12:05.499Z,10.82
2019-04-29T23:14:36.097Z,10.78
2019-04-29T23:17:12.052Z,10.75
2019-04-29T23:19:36.786Z,10.73
2019-04-29T23:22:42.371Z,10.72
2019-04-29T23:25:21.832Z,10.68
2019-04-29T23:27:52.669Z,10.64
2019-04-29T23:30:25.133Z,10.60
2019-04-29T23:32:56.116Z,10.57
2019-04-29T23:35:25.552Z,10.54
2019-04-29T23:37:58.742Z,10.51
2019-04-29T23:40:25.987Z,10.49
2019-04-29T23:42:57.315Z,10.48
2019-04-29T23:45:26.456Z,10.42
2019-04-29T23:47:55.803Z,10.42
2019-04-29T23:50:25.754Z,10.41
2019-04-29T23:52:56.219Z,10.38
2019-04-29T23:55:29.087Z,10.37
2019-04-29T23:58:22.546Z,10.32
